createdAt,value
2019-01-28T00:01:09.625Z,4.26
2019-01-28T00:04:12.643Z,4.27
2019-01-28T00:07:15.972Z,4.34
2019-01-28T00:10:19.572Z,4.42
2019-01-28T00:13:22.503Z,4.28
2019-01-28T00:16:25.433Z,4.36
2019-01-28T00:19:28.342Z,4.27
2019-01-28T00:22:31.580Z,4.28
2019-01-28T00:25:34.883Z,4.23
2019-01-28T00:28:38.908Z,4.36
2019-01-28T00:31:42.189Z,4.32
2019-01-28T00:34:45.119Z,4.31
2019-01-28T00:37:48.051Z,4.31
2019-01-28T00:40:52.098Z,4.38
2019-01-28T00:43:55.700Z,4.32
2019-01-28T00:46:59.342Z,4.22
2019-01-28T00:50:02.672Z,4.24
2019-01-28T00:53:06.388Z,4.29
2019-01-28T00:56:09.602Z,4.30
2019-01-28T00:59:12.534Z,4.32
2019-01-28T01:02:15.786Z,4.14
2019-01-28T01:05:18.691Z,4.18
2019-01-28T01:08:21.942Z,4.24
2019-01-28T01:11:25.643Z,4.16
2019-01-28T01:14:28.558Z,4.06
2019-01-28T01:17:31.834Z,4.27
2019-01-28T01:20:34.732Z,4.28
2019-01-28T01:23:38.000Z,4.37
2019-01-28T01:26:41.578Z,4.17
2019-01-28T01:29:45.204Z,4.16
2019-01-28T01:32:48.473Z,4.12
2019-01-28T01:35:52.832Z,4.01
2019-01-28T01:38:55.766Z,4.02
2019-01-28T01:41:58.695Z,3.86
2019-01-28T01:45:01.896Z,3.89
2019-01-28T01:48:05.627Z,4.08
2019-01-28T01:51:09.119Z,3.96
2019-01-28T01:54:12.610Z,3.98
2019-01-28T01:57:15.820Z,3.92
2019-01-28T02:00:19.941Z,4.10
2019-01-28T02:03:23.431Z,4.01
2019-01-28T02:06:26.360Z,4.04
2019-01-28T02:09:29.622Z,3.94
2019-01-28T02:12:33.203Z,4.04
2019-01-28T02:15:36.414Z,4.05
2019-01-28T02:18:39.591Z,3.98
2019-01-28T02:21:43.311Z,4.00
2019-01-28T02:24:46.243Z,3.94
2019-01-28T02:27:49.478Z,3.97
2019-01-28T02:30:52.738Z,3.89
2019-01-28T02:33:55.656Z,3.94
2019-01-28T02:36:58.633Z,3.93
2019-01-28T02:40:01.552Z,3.86
2019-01-28T02:43:04.487Z,3.87
2019-01-28T02:46:07.416Z,3.71
2019-01-28T02:49:10.622Z,3.60
2019-01-28T02:52:14.951Z,3.68
2019-01-28T02:55:18.741Z,3.49
2019-01-28T02:58:22.024Z,3.63
2019-01-28T03:01:24.986Z,3.60
2019-01-28T03:04:28.205Z,3.55
2019-01-28T03:07:31.703Z,3.54
2019-01-28T03:10:34.607Z,3.71
2019-01-28T03:13:39.317Z,3.60
2019-01-28T03:16:42.222Z,3.53
2019-01-28T03:19:45.440Z,3.55
2019-01-28T03:22:49.074Z,3.51
2019-01-28T03:25:52.296Z,3.67
2019-01-28T03:28:56.010Z,3.62
2019-01-28T03:31:59.201Z,3.84
2019-01-28T03:35:02.702Z,3.66
2019-01-28T03:38:05.625Z,3.48
2019-01-28T03:41:08.533Z,3.62
2019-01-28T03:44:11.479Z,3.49
2019-01-28T03:47:14.666Z,3.59
2019-01-28T03:50:18.216Z,3.42
2019-01-28T03:53:21.333Z,3.35
2019-01-28T03:56:24.542Z,3.34
2019-01-28T03:59:27.472Z,3.27
2019-01-28T04:02:30.498Z,3.52
2019-01-28T04:05:33.427Z,3.46
2019-01-28T04:08:36.351Z,3.11
2019-01-28T04:11:39.683Z,3.16
2019-01-28T04:14:43.006Z,3.15
2019-01-28T04:17:46.594Z,3.16
2019-01-28T04:20:49.876Z,3.07
2019-01-28T04:23:53.098Z,3.33
2019-01-28T04:26:56.007Z,3.12
2019-01-28T04:29:59.255Z,2.99
2019-01-28T04:33:02.187Z,3.15
2019-01-28T04:36:05.446Z,3.18
2019-01-28T04:39:08.604Z,3.02
2019-01-28T04:42:12.646Z,3.15
2019-01-28T04:45:17.236Z,3.36
2019-01-28T04:48:20.162Z,3.15
2019-01-28T04:51:23.427Z,3.24
2019-01-28T04:54:26.741Z,3.14
2019-01-28T04:57:29.963Z,3.10
2019-01-28T05:00:33.545Z,3.51
2019-01-28T05:03:36.545Z,3.42
2019-01-28T05:06:39.857Z,3.26
2019-01-28T05:09:42.894Z,3.33
2019-01-28T05:12:46.832Z,3.23
2019-01-28T05:15:50.539Z,3.21
2019-01-28T05:18:53.446Z,3.23
2019-01-28T05:21:58.123Z,3.13
2019-01-28T05:25:01.378Z,3.23
2019-01-28T05:28:04.586Z,3.38
2019-01-28T05:31:08.399Z,3.39
2019-01-28T05:34:11.992Z,3.51
2019-01-28T05:37:16.706Z,3.44
2019-01-28T05:40:22.041Z,3.22
2019-01-28T05:43:24.940Z,3.30
2019-01-28T05:46:28.198Z,3.16
2019-01-28T05:49:31.089Z,3.17
2019-01-28T05:52:35.006Z,3.20
2019-01-28T05:55:39.218Z,3.07
2019-01-28T05:58:42.419Z,3.14
2019-01-28T06:01:45.759Z,3.12
2019-01-28T06:04:49.019Z,3.27
2019-01-28T06:07:52.426Z,3.11
2019-01-28T06:10:55.353Z,3.12
2019-01-28T06:13:58.347Z,3.19
2019-01-28T06:17:01.605Z,3.19
2019-01-28T06:20:08.903Z,3.16
2019-01-28T06:23:12.077Z,3.21
2019-01-28T06:26:15.263Z,3.16
2019-01-28T06:29:18.178Z,3.16
2019-01-28T06:32:21.131Z,3.29
2019-01-28T06:35:24.533Z,3.12
2019-01-28T06:38:27.470Z,3.03
2019-01-28T06:41:30.734Z,3.09
2019-01-28T06:44:33.661Z,3.03
2019-01-28T06:47:36.928Z,3.04
2019-01-28T06:50:40.191Z,2.98
2019-01-28T06:53:43.816Z,3.04
2019-01-28T06:56:47.243Z,3.08
2019-01-28T06:59:50.476Z,3.12
2019-01-28T07:02:54.183Z,3.20
2019-01-28T07:05:57.094Z,3.14
2019-01-28T07:09:00.031Z,3.13
2019-01-28T07:12:03.062Z,3.23
2019-01-28T07:15:08.400Z,3.13
2019-01-28T07:18:11.449Z,3.20
2019-01-28T07:21:15.104Z,3.16
2019-01-28T07:24:18.687Z,3.30
2019-01-28T07:27:21.883Z,6.59
2019-01-28T07:30:36.519Z,3.85
2019-01-28T07:33:40.142Z,3.58
2019-01-28T07:36:43.896Z,3.51
2019-01-28T07:39:46.843Z,3.36
2019-01-28T07:42:50.049Z,3.40
2019-01-28T07:45:52.986Z,3.47
2019-01-28T07:48:55.926Z,3.41
2019-01-28T07:51:58.836Z,3.33
2019-01-28T07:55:02.396Z,3.41
2019-01-28T07:58:05.434Z,3.35
2019-01-28T08:01:08.628Z,3.37
2019-01-28T08:04:12.005Z,3.38
2019-01-28T08:07:15.271Z,3.39
2019-01-28T08:10:18.896Z,3.53
2019-01-28T08:13:22.482Z,3.52
2019-01-28T08:16:26.143Z,3.42
2019-01-28T08:19:29.053Z,3.44
2019-01-28T08:22:32.271Z,3.29
2019-01-28T08:25:35.531Z,3.36
2019-01-28T08:28:38.763Z,3.49
2019-01-28T08:31:42.358Z,3.39
2019-01-28T08:34:45.267Z,3.28
2019-01-28T08:37:48.588Z,3.30
2019-01-28T08:40:51.549Z,3.40
2019-01-28T08:43:55.155Z,3.33
2019-01-28T08:46:58.427Z,3.36
2019-01-28T08:50:01.695Z,3.33
2019-01-28T08:53:06.006Z,3.37
2019-01-28T08:56:16.509Z,3.43
2019-01-28T08:59:14.067Z,3.44
2019-01-28T09:02:18.722Z,3.46
2019-01-28T09:05:22.552Z,3.56
2019-01-28T09:08:26.308Z,3.51
2019-01-28T09:11:29.208Z,3.57
2019-01-28T09:14:32.151Z,3.61
2019-01-28T09:17:35.711Z,3.69
2019-01-28T09:20:39.063Z,3.63
2019-01-28T09:23:41.993Z,3.76
2019-01-28T09:26:44.906Z,3.81
2019-01-28T09:29:48.258Z,3.94
2019-01-28T09:32:51.169Z,4.04
2019-01-28T09:35:54.104Z,4.13
2019-01-28T09:38:57.020Z,4.13
2019-01-28T09:42:00.208Z,4.23
2019-01-28T09:45:06.137Z,4.34
2019-01-28T09:48:12.946Z,4.38
2019-01-28T09:51:15.875Z,4.43
2019-01-28T09:54:18.818Z,4.48
2019-01-28T09:57:21.719Z,4.41
2019-01-28T10:00:50.755Z,4.57
2019-01-28T10:03:53.658Z,4.61
2019-01-28T10:06:57.226Z,4.60
2019-01-28T10:10:01.600Z,4.59
2019-01-28T10:13:05.523Z,4.60
2019-01-28T10:16:08.451Z,4.55
2019-01-28T10:19:12.341Z,4.63
2019-01-28T10:22:15.598Z,4.74
2019-01-28T10:25:19.427Z,4.71
2019-01-28T10:28:22.363Z,4.73
2019-01-28T10:31:26.091Z,4.83
2019-01-28T10:34:29.093Z,4.77
2019-01-28T10:37:32.022Z,4.80
2019-01-28T10:40:36.644Z,4.85
2019-01-28T10:43:39.550Z,4.85
2019-01-28T10:46:42.518Z,4.93
2019-01-28T10:49:46.096Z,4.81
2019-01-28T10:52:49.336Z,4.90
2019-01-28T10:55:52.272Z,4.96
2019-01-28T10:58:55.215Z,4.85
2019-01-28T11:01:58.146Z,4.87
2019-01-28T11:05:01.777Z,4.90
2019-01-28T11:08:05.949Z,4.82
2019-01-28T11:11:08.978Z,4.85
2019-01-28T11:14:11.989Z,4.87
2019-01-28T11:17:15.026Z,4.86
2019-01-28T11:20:18.635Z,4.78
2019-01-28T11:23:21.754Z,4.81
2019-01-28T11:26:24.742Z,4.77
2019-01-28T11:29:28.123Z,4.75
2019-01-28T11:32:31.577Z,4.78
2019-01-28T11:35:35.693Z,4.63
2019-01-28T11:38:40.071Z,4.76
2019-01-28T11:41:43.175Z,4.69
2019-01-28T11:44:46.291Z,4.69
2019-01-28T11:47:50.132Z,4.70
2019-01-28T11:50:56.136Z,4.69
2019-01-28T11:53:58.191Z,4.78
2019-01-28T11:57:01.097Z,4.74
2019-01-28T12:00:16.868Z,4.66
2019-01-28T12:03:19.896Z,4.74
2019-01-28T12:06:23.006Z,4.74
2019-01-28T12:09:26.661Z,4.70
2019-01-28T12:12:29.907Z,4.58
2019-01-28T12:15:33.199Z,4.58
2019-01-28T12:18:36.099Z,4.60
2019-01-28T12:21:39.081Z,4.51
2019-01-28T12:24:42.277Z,4.58
2019-01-28T12:27:45.508Z,4.58
2019-01-28T12:30:49.786Z,4.57
2019-01-28T12:33:53.202Z,4.45
2019-01-28T12:36:57.073Z,4.39
2019-01-28T12:40:00.006Z,4.35
2019-01-28T12:43:03.519Z,4.34
2019-01-28T12:46:06.735Z,4.40
2019-01-28T12:49:09.746Z,4.36
2019-01-28T12:52:13.010Z,4.28
2019-01-28T12:55:17.453Z,4.35
2019-01-28T12:58:20.454Z,4.32
2019-01-28T13:01:23.388Z,4.39
2019-01-28T13:04:26.618Z,4.33
2019-01-28T13:07:29.545Z,4.20
2019-01-28T13:10:33.169Z,4.30
2019-01-28T13:13:40.952Z,4.25
2019-01-28T13:16:41.519Z,4.35
2019-01-28T13:19:45.119Z,4.20
2019-01-28T13:22:48.656Z,4.25
2019-01-28T13:25:51.563Z,4.22
2019-01-28T13:28:54.846Z,4.17
2019-01-28T13:31:58.104Z,4.18
2019-01-28T13:35:01.597Z,4.18
2019-01-28T13:38:05.251Z,4.16
2019-01-28T13:41:08.173Z,4.11
2019-01-28T13:44:12.583Z,4.16
2019-01-28T13:47:15.849Z,4.22
2019-01-28T13:50:20.863Z,4.19
2019-01-28T13:53:24.791Z,4.24
2019-01-28T13:56:28.140Z,4.20
2019-01-28T13:59:31.202Z,4.20
2019-01-28T14:02:34.127Z,4.09
2019-01-28T14:05:37.530Z,4.09
2019-01-28T14:08:40.802Z,4.07
2019-01-28T14:11:43.697Z,4.16
2019-01-28T14:14:46.943Z,4.07
2019-01-28T14:17:50.449Z,4.10
2019-01-28T14:20:57.787Z,4.05
2019-01-28T14:24:00.730Z,3.97
2019-01-28T14:27:03.748Z,3.98
2019-01-28T14:30:12.054Z,3.98
2019-01-28T14:33:14.989Z,4.15
2019-01-28T14:36:17.988Z,4.04
2019-01-28T14:39:20.905Z,4.13
2019-01-28T14:42:23.810Z,4.13
2019-01-28T14:45:27.439Z,4.15
2019-01-28T14:48:30.346Z,4.07
2019-01-28T14:51:33.272Z,4.04
2019-01-28T14:54:36.575Z,4.14
2019-01-28T14:57:39.780Z,4.03
2019-01-28T15:00:46.274Z,4.06
2019-01-28T15:03:49.616Z,4.08
2019-01-28T15:06:52.540Z,4.13
2019-01-28T15:09:55.736Z,4.11
2019-01-28T15:12:59.236Z,4.18
2019-01-28T15:16:08.944Z,4.07
2019-01-28T15:19:08.378Z,3.89
2019-01-28T15:22:11.303Z,4.00
2019-01-28T15:25:14.900Z,4.05
2019-01-28T15:28:17.930Z,3.99
2019-01-28T15:31:20.858Z,4.08
2019-01-28T15:34:24.498Z,4.11
2019-01-28T15:37:28.183Z,4.08
2019-01-28T15:40:33.096Z,4.07
2019-01-28T15:43:36.384Z,4.05
2019-01-28T15:46:40.391Z,4.09
2019-01-28T15:49:43.689Z,3.80
2019-01-28T15:52:47.121Z,3.87
2019-01-28T15:55:50.065Z,3.92
2019-01-28T15:58:53.719Z,4.00
2019-01-28T16:01:56.980Z,4.02
2019-01-28T16:05:00.279Z,3.89
2019-01-28T16:08:04.284Z,3.85
2019-01-28T16:11:07.892Z,3.73
2019-01-28T16:14:10.843Z,3.70
2019-01-28T16:17:13.776Z,3.77
2019-01-28T16:20:18.627Z,3.71
2019-01-28T16:23:21.746Z,3.69
2019-01-28T16:26:25.045Z,3.72
2019-01-28T16:29:27.972Z,3.77
2019-01-28T16:32:30.891Z,3.78
2019-01-28T16:35:34.351Z,3.79
2019-01-28T16:38:37.262Z,3.72
2019-01-28T16:41:40.222Z,3.80
2019-01-28T16:44:43.165Z,3.77
2019-01-28T16:47:47.238Z,3.80
2019-01-28T16:50:50.180Z,3.84
2019-01-28T16:53:53.130Z,3.92
2019-01-28T16:56:57.870Z,4.01
2019-01-28T17:00:00.801Z,3.90
2019-01-28T17:03:05.691Z,3.93
2019-01-28T17:06:08.956Z,3.98
2019-01-28T17:09:13.082Z,3.87
2019-01-28T17:12:17.043Z,3.90
2019-01-28T17:15:20.550Z,3.96
2019-01-28T17:18:23.776Z,3.94
2019-01-28T17:21:26.909Z,3.92
2019-01-28T17:24:30.884Z,4.00
2019-01-28T17:27:34.106Z,4.08
2019-01-28T17:30:40.707Z,3.94
2019-01-28T17:33:44.087Z,3.87
2019-01-28T17:36:47.445Z,3.96
2019-01-28T17:39:50.569Z,4.03
2019-01-28T17:42:54.563Z,3.96
2019-01-28T17:45:57.843Z,3.85
2019-01-28T17:49:01.019Z,3.91
2019-01-28T17:52:03.976Z,4.10
2019-01-28T17:55:08.624Z,3.89
2019-01-28T17:58:12.152Z,3.96
2019-01-28T18:01:15.101Z,3.92
2019-01-28T18:04:18.443Z,3.92
2019-01-28T18:07:21.469Z,3.87
2019-01-28T18:10:25.070Z,3.83
2019-01-28T18:13:29.111Z,3.82
2019-01-28T18:16:32.159Z,3.77
2019-01-28T18:19:35.163Z,3.81
2019-01-28T18:22:45.367Z,3.66
2019-01-28T18:25:48.406Z,3.82
2019-01-28T18:28:52.072Z,3.89
2019-01-28T18:31:55.114Z,3.82
2019-01-28T18:34:58.019Z,3.84
2019-01-28T18:38:01.375Z,3.92
2019-01-28T18:41:06.365Z,3.85
2019-01-28T18:44:09.902Z,3.92
2019-01-28T18:47:13.624Z,3.85
2019-01-28T18:50:17.316Z,3.81
2019-01-28T18:53:20.250Z,3.88
2019-01-28T18:56:24.599Z,3.93
2019-01-28T18:59:27.928Z,4.03
2019-01-28T19:02:31.936Z,3.74
2019-01-28T19:05:44.184Z,3.70
2019-01-28T19:09:06.015Z,3.71
2019-01-28T19:12:32.720Z,3.64
2019-01-28T19:15:43.965Z,3.59
2019-01-28T19:19:08.796Z,3.63
2019-01-28T19:22:12.810Z,3.71
2019-01-28T19:25:16.081Z,3.68
2019-01-28T19:28:19.389Z,3.64
2019-01-28T19:31:22.391Z,3.71
2019-01-28T19:34:25.552Z,3.77
2019-01-28T19:37:29.063Z,3.65
2019-01-28T19:40:31.975Z,3.75
2019-01-28T19:43:35.344Z,3.81
2019-01-28T19:46:38.581Z,3.68
2019-01-28T19:49:42.633Z,3.80
2019-01-28T19:52:46.423Z,3.72
2019-01-28T19:55:49.826Z,3.81
2019-01-28T19:58:53.158Z,3.73
2019-01-28T20:01:56.349Z,3.71
2019-01-28T20:05:00.604Z,3.70
2019-01-28T20:08:05.119Z,3.72
2019-01-28T20:11:08.418Z,3.67
2019-01-28T20:14:11.771Z,3.67
2019-01-28T20:17:14.674Z,3.67
2019-01-28T20:20:17.963Z,3.83
2019-01-28T20:23:21.021Z,3.69
2019-01-28T20:26:24.602Z,3.76
2019-01-28T20:29:27.685Z,3.68
2019-01-28T20:32:30.571Z,3.70
2019-01-28T20:35:33.766Z,3.73
2019-01-28T20:38:36.686Z,3.68
2019-01-28T20:41:39.590Z,3.59
2019-01-28T20:44:43.607Z,3.64
2019-01-28T20:47:46.544Z,3.65
2019-01-28T20:50:51.815Z,3.99
2019-01-28T20:53:55.154Z,3.99
2019-01-28T20:56:58.057Z,3.53
2019-01-28T21:00:01.119Z,3.51
2019-01-28T21:03:05.638Z,3.61
2019-01-28T21:06:09.114Z,3.63
2019-01-28T21:09:12.533Z,3.57
2019-01-28T21:12:15.767Z,3.65
2019-01-28T21:15:21.094Z,3.52
2019-01-28T21:18:24.391Z,3.60
2019-01-28T21:21:27.324Z,3.56
2019-01-28T21:24:30.555Z,3.44
2019-01-28T21:27:34.579Z,3.56
2019-01-28T21:30:37.852Z,3.48
2019-01-28T21:33:40.759Z,3.62
2019-01-28T21:36:55.499Z,3.53
2019-01-28T21:39:58.812Z,3.55
2019-01-28T21:43:03.032Z,3.39
2019-01-28T21:46:06.432Z,3.27
2019-01-28T21:49:09.447Z,3.30
2019-01-28T21:52:12.664Z,3.27
2019-01-28T21:55:16.388Z,2.98
2019-01-28T21:58:19.320Z,3.12
2019-01-28T22:01:22.629Z,3.11
2019-01-28T22:04:26.101Z,3.12
2019-01-28T22:07:29.294Z,3.13
2019-01-28T22:10:32.204Z,3.10
2019-01-28T22:13:35.495Z,3.13
2019-01-28T22:16:38.773Z,3.27
2019-01-28T22:19:41.734Z,3.23
2019-01-28T22:22:45.291Z,3.18
2019-01-28T22:25:48.194Z,3.17
2019-01-28T22:28:51.919Z,3.25
2019-01-28T22:31:56.187Z,3.33
2019-01-28T22:34:59.106Z,3.22
2019-01-28T22:38:02.335Z,3.08
2019-01-28T22:41:05.635Z,3.15
2019-01-28T22:44:09.148Z,3.18
2019-01-28T22:47:12.115Z,3.12
2019-01-28T22:50:16.309Z,3.24
2019-01-28T22:53:19.521Z,3.28
2019-01-28T22:56:22.444Z,3.18
2019-01-28T22:59:25.468Z,3.22
2019-01-28T23:02:28.821Z,3.15
2019-01-28T23:05:32.448Z,3.14
2019-01-28T23:08:35.896Z,3.11
2019-01-28T23:11:39.557Z,3.10
2019-01-28T23:14:43.152Z,3.08
2019-01-28T23:17:46.798Z,3.16
2019-01-28T23:20:50.055Z,3.07
2019-01-28T23:23:52.976Z,3.04
2019-01-28T23:26:56.337Z,3.08
2019-01-28T23:29:59.420Z,3.06
2019-01-28T23:33:02.374Z,3.19
2019-01-28T23:36:05.816Z,3.18
2019-01-28T23:39:08.941Z,3.22
2019-01-28T23:42:12.279Z,3.19
2019-01-28T23:45:15.725Z,3.13
2019-01-28T23:48:19.078Z,3.05
2019-01-28T23:51:22.682Z,2.89
2019-01-28T23:54:26.299Z,2.98
2019-01-28T23:57:29.223Z,2.98
